Weather at Dyersburg Regional Airport

Public forecast

Using degrees Fahrenheit for public forecast. Weather courtesy of forecast.io.

Current aviation weather report (METAR) for Dyersburg Regional Airport

Retrieved 2020/09/26 19:56 UTC (58 minutes ago):

KDYR 261956Z AUTO 19006KT 10SM OVC032 24/18 A2996 RMK AO2 SLP150 T02390183 PNO

Closest aviation forecast (TAF) to Dyersburg Regional Airport

Closest forecast is McKellar-Sipes Regional Airport, 33.8 nm (62.6 km) SE. Retrieved 2020/09/26 18:30 UTC (2 hours ago):

TAF KMKL 261729Z 2618/2718 19006KT P6SM BKN035 FM270000 18003KT P6SM SCT035 FM271400 22007KT P6SM SCT040